Time;durP1;ratioP1;P1;durP2;ratioP2;P2;SDS_P1;SDS_P2;PMS_P1;PMS_P2;Temp;Humidity;BMP_temperature;BMP_pressure;BME280_temperature;BME280_humidity;BME280_pressure;Samples;Min_cycle;Max_cycle;Signal;HPM_P1;HPM_P2
2023/10/25 00:01:30;;;;;;;3.67;2.70;;;;;;;11.18;100.00;97046.38;5075154;28;20583;-74
2023/10/25 00:03:56;;;;;;;2.87;2.47;;;;;;;11.24;100.00;97040.88;5075304;28;20687;-74
2023/10/25 00:06:22;;;;;;;2.77;2.37;;;;;;;11.24;100.00;97035.56;5075386;28;20214;-74
2023/10/25 00:08:49;;;;;;;2.40;1.90;;;;;;;11.22;100.00;97031.53;5075369;28;20236;-74
2023/10/25 00:11:16;;;;;;;4.43;1.90;;;;;;;11.13;100.00;97043.66;5075296;28;20234;-74
2023/10/25 00:13:42;;;;;;;3.87;2.30;;;;;;;11.16;100.00;97025.34;5075267;28;20205;-74
2023/10/25 00:16:08;;;;;;;2.53;2.33;;;;;;;11.17;100.00;97018.19;5075200;28;20205;-74
2023/10/25 00:18:34;;;;;;;5.83;2.30;;;;;;;11.11;100.00;97027.94;5075179;28;20247;-74
2023/10/25 00:21:01;;;;;;;2.53;2.33;;;;;;;11.17;100.00;97012.88;5074812;28;20690;-74
2023/10/25 00:23:27;;;;;;;2.60;2.40;;;;;;;11.12;100.00;97010.94;5075019;28;20205;-74
2023/10/25 00:25:53;;;;;;;2.90;2.60;;;;;;;11.15;100.00;97013.09;5074922;28;20204;-74
2023/10/25 00:28:20;;;;;;;3.17;2.43;;;;;;;11.10;100.00;97018.38;5074734;28;20255;-74
2023/10/25 00:30:47;;;;;;;2.80;2.60;;;;;;;11.17;100.00;97013.66;5074833;28;20586;-74
2023/10/25 00:33:13;;;;;;;3.13;2.60;;;;;;;11.20;100.00;97010.50;5074827;28;20205;-74
2023/10/25 00:35:40;;;;;;;2.90;2.30;;;;;;;11.20;100.00;97013.16;5074755;28;20208;-74
2023/10/25 00:38:06;;;;;;;2.70;2.50;;;;;;;11.13;100.00;97005.38;5074265;28;20221;-74
2023/10/25 00:40:33;;;;;;;2.63;2.40;;;;;;;11.18;100.00;96999.31;5074579;28;20205;-74
2023/10/25 00:43:16;;;;;;;3.17;2.63;;;;;;;11.23;100.00;97001.22;5074630;28;20214;-74
2023/10/25 00:46:07;;;;;;;2.90;2.70;;;;;;;11.27;100.00;97003.94;5074222;28;20250;-74
2023/10/25 00:48:36;;;;;;;3.77;2.60;;;;;;;11.26;100.00;97001.53;5074308;28;20224;-74
2023/10/25 00:51:03;;;;;;;2.77;2.43;;;;;;;11.26;100.00;97003.41;5074366;28;20211;-74
2023/10/25 00:53:32;;;;;;;2.97;2.63;;;;;;;11.23;100.00;97008.16;5074316;28;20212;-74
2023/10/25 00:56:01;;;;;;;2.87;2.67;;;;;;;11.21;100.00;97014.78;5072817;28;20255;-74
2023/10/25 00:58:28;;;;;;;2.70;2.50;;;;;;;11.12;100.00;97004.81;5073927;28;20312;-74
2023/10/25 01:00:56;;;;;;;5.27;2.73;;;;;;;11.10;100.00;97002.41;5074147;28;20218;-74
2023/10/25 01:03:23;;;;;;;3.60;2.20;;;;;;;11.08;100.00;97007.16;5074204;28;20212;-74
2023/10/25 01:05:49;;;;;;;2.67;2.47;;;;;;;11.09;100.00;97003.47;5074120;28;20205;-74
2023/10/25 01:08:20;;;;;;;3.27;2.50;;;;;;;11.00;100.00;97007.59;5073971;28;20291;-74
2023/10/25 01:10:50;;;;;;;2.60;2.40;;;;;;;11.01;100.00;97006.56;5074103;28;20215;-74
2023/10/25 01:13:17;;;;;;;4.80;2.77;;;;;;;10.97;100.00;97005.44;5073759;28;20578;-74
2023/10/25 01:15:44;;;;;;;2.83;2.63;;;;;;;10.99;100.00;97008.63;5073697;28;20206;-74
2023/10/25 01:18:10;;;;;;;2.93;2.73;;;;;;;10.98;100.00;96999.06;5073632;28;20232;-74
2023/10/25 01:20:37;;;;;;;4.10;3.40;;;;;;;10.84;100.00;96998.63;5073940;28;20208;-74
2023/10/25 01:23:03;;;;;;;3.33;3.03;;;;;;;10.93;100.00;97000.88;5073913;28;20208;-74
2023/10/25 01:25:29;;;;;;;3.67;3.30;;;;;;;10.88;100.00;97001.59;5073918;28;20204;-74
2023/10/25 01:27:56;;;;;;;4.47;3.07;;;;;;;10.85;100.00;97023.34;5073780;28;20238;-74
2023/10/25 01:30:22;;;;;;;4.80;3.53;;;;;;;10.79;100.00;97032.31;5073833;28;20213;-74
2023/10/25 01:32:49;;;;;;;5.60;3.37;;;;;;;10.85;100.00;97031.31;5073849;28;20213;-74
2023/10/25 01:35:15;;;;;;;4.57;3.50;;;;;;;10.91;100.00;97014.41;5073539;28;20209;-74
2023/10/25 01:37:41;;;;;;;4.20;3.67;;;;;;;10.91;100.00;97009.88;5073694;28;20232;-74
2023/10/25 01:40:08;;;;;;;4.90;3.83;;;;;;;10.86;100.00;96998.38;5073741;28;20201;-74
2023/10/25 01:42:35;;;;;;;3.60;3.30;;;;;;;10.79;100.00;96995.09;5074003;28;20201;-74
2023/10/25 01:45:01;;;;;;;3.60;3.30;;;;;;;10.76;100.00;97003.53;5073701;28;20206;-74
2023/10/25 01:47:29;;;;;;;3.37;3.07;;;;;;;10.60;100.00;97010.50;5073297;28;20228;-74
2023/10/25 01:49:55;;;;;;;4.47;3.20;;;;;;;10.61;100.00;97003.34;5073580;28;20263;-74
2023/10/25 01:52:22;;;;;;;3.30;3.00;;;;;;;10.51;100.00;97011.16;5073616;28;20204;-74
2023/10/25 01:54:50;;;;;;;2.90;2.70;;;;;;;10.62;100.00;97004.94;5073292;28;20239;-74
2023/10/25 01:57:17;;;;;;;3.00;2.80;;;;;;;10.52;100.00;97004.81;5073140;28;20232;-74
2023/10/25 01:59:44;;;;;;;4.43;2.80;;;;;;;10.47;100.00;97008.19;5073002;28;20198;-74
2023/10/25 02:02:11;;;;;;;3.93;2.97;;;;;;;10.31;100.00;97000.22;5073523;28;20189;-74
2023/10/25 02:04:38;;;;;;;3.13;2.80;;;;;;;10.21;100.00;97002.72;5073435;28;20204;-74
2023/10/25 02:07:05;;;;;;;3.00;2.80;;;;;;;10.22;100.00;97004.31;5073396;28;20205;-74
2023/10/25 02:09:32;;;;;;;3.00;2.80;;;;;;;10.21;100.00;97000.06;5073376;28;20232;-74
2023/10/25 02:11:58;;;;;;;2.63;2.13;;;;;;;10.21;100.00;97000.06;5073379;28;20297;-74
2023/10/25 02:14:25;;;;;;;3.77;2.90;;;;;;;10.22;100.00;96996.38;5073072;28;20668;-74
2023/10/25 02:16:51;;;;;;;3.30;2.83;;;;;;;10.38;100.00;96998.22;5073402;28;20207;-74
2023/10/25 02:19:19;;;;;;;3.50;3.20;;;;;;;10.24;100.00;96991.63;5072982;28;20237;-74
2023/10/25 02:21:45;;;;;;;3.40;3.10;;;;;;;10.23;100.00;96990.81;5073348;28;20262;-74
2023/10/25 02:24:14;;;;;;;3.40;3.20;;;;;;;10.41;100.00;96987.13;5073265;28;20212;-74
2023/10/25 02:26:40;;;;;;;3.63;3.30;;;;;;;10.39;100.00;96979.38;5073246;28;20207;-74
2023/10/25 02:29:07;;;;;;;4.27;3.37;;;;;;;10.43;100.00;96979.69;5072796;28;20602;-74
2023/10/25 02:31:34;;;;;;;3.70;3.40;;;;;;;10.46;100.00;96979.22;5073210;28;20212;-74
2023/10/25 02:34:00;;;;;;;3.43;3.03;;;;;;;10.47;100.00;96980.81;5073261;28;20258;-74
2023/10/25 02:36:26;;;;;;;3.40;3.20;;;;;;;10.48;100.00;96967.28;5073219;28;20212;-74
2023/10/25 02:38:53;;;;;;;4.63;3.50;;;;;;;10.52;100.00;96976.38;5073083;28;20224;-74
2023/10/25 02:41:19;;;;;;;4.10;3.80;;;;;;;10.46;100.00;96977.34;5073051;28;20219;-74
2023/10/25 02:43:45;;;;;;;4.63;3.73;;;;;;;10.45;100.00;96973.09;5073089;28;20212;-74
2023/10/25 02:46:12;;;;;;;3.70;3.40;;;;;;;10.44;100.00;96965.34;5073328;28;20217;-74
2023/10/25 02:48:39;;;;;;;4.03;3.73;;;;;;;10.45;100.00;96961.66;5072889;28;20319;-74
2023/10/25 02:51:07;;;;;;;4.77;4.37;;;;;;;10.46;100.00;96965.94;5072660;28;20671;-74
2023/10/25 02:53:33;;;;;;;4.33;4.03;;;;;;;10.34;100.00;96958.06;5073234;28;20205;-74
2023/10/25 02:56:00;;;;;;;4.70;4.30;;;;;;;10.38;100.00;96956.53;5072992;28;20205;-74
2023/10/25 02:58:27;;;;;;;6.33;4.50;;;;;;;10.50;100.00;96956.44;5073106;28;20228;-74
2023/10/25 03:00:53;;;;;;;4.70;4.30;;;;;;;10.50;100.00;96953.78;5072624;28;20219;-74
2023/10/25 03:03:20;;;;;;;4.87;4.47;;;;;;;10.46;100.00;96956.09;5072774;28;20212;-74
2023/10/25 03:05:46;;;;;;;5.60;5.10;;;;;;;10.46;100.00;96948.13;5072474;28;20216;-74
2023/10/25 03:08:12;;;;;;;6.57;6.07;;;;;;;10.45;100.00;96943.84;5072728;28;20232;-74
2023/10/25 03:10:39;;;;;;;9.60;6.33;;;;;;;10.52;100.00;96939.19;5075514;28;20211;-74
2023/10/25 03:13:05;;;;;;;7.53;6.03;;;;;;;10.53;100.00;96942.63;5076351;28;20204;-74
2023/10/25 03:15:32;;;;;;;8.43;6.10;;;;;;;10.52;100.00;96943.69;5076239;28;20204;-74
2023/10/25 03:17:58;;;;;;;6.97;6.20;;;;;;;10.43;100.00;96937.19;5076147;28;20237;-74
2023/10/25 03:20:24;;;;;;;6.50;5.90;;;;;;;10.49;100.00;96929.03;5075939;28;20663;-74
2023/10/25 03:22:51;;;;;;;6.40;5.80;;;;;;;10.56;100.00;96921.72;5076119;28;20201;-74
2023/10/25 03:25:17;;;;;;;7.30;6.53;;;;;;;10.43;100.00;96923.91;5076058;28;20217;-74
2023/10/25 03:27:44;;;;;;;7.53;5.90;;;;;;;10.63;100.00;96924.16;5076142;28;20260;-74
2023/10/25 03:30:10;;;;;;;6.30;5.70;;;;;;;10.65;100.00;96914.09;5076045;28;20224;-74
2023/10/25 03:32:37;;;;;;;5.77;5.20;;;;;;;10.66;100.00;96915.69;5075828;28;20204;-74
2023/10/25 03:35:04;;;;;;;6.33;5.73;;;;;;;10.62;100.00;96910.09;5075716;28;20204;-74
2023/10/25 03:37:30;;;;;;;6.03;5.53;;;;;;;10.52;100.00;96914.47;5075437;28;20232;-74
2023/10/25 03:39:57;;;;;;;6.60;5.90;;;;;;;10.53;100.00;96916.88;5075799;28;20200;-74
2023/10/25 03:42:23;;;;;;;6.67;5.50;;;;;;;10.53;100.00;96916.06;5075648;28;20204;-74
2023/10/25 03:44:50;;;;;;;6.77;5.97;;;;;;;10.44;100.00;96920.19;5075766;28;20211;-74
2023/10/25 03:47:16;;;;;;;5.97;5.47;;;;;;;10.40;100.00;96921.72;5075727;28;20226;-73
2023/10/25 03:49:43;;;;;;;6.77;5.60;;;;;;;10.36;100.00;96917.97;5075551;28;20263;-73
2023/10/25 03:52:09;;;;;;;6.40;5.90;;;;;;;10.23;100.00;96924.41;5075653;28;20209;-73
2023/10/25 03:54:39;;;;;;;6.60;6.00;;;;;;;10.17;100.00;96912.13;5075301;28;20294;-73
2023/10/25 03:57:05;;;;;;;7.73;6.53;;;;;;;10.10;100.00;96908.03;5074972;28;20664;-73
2023/10/25 03:59:32;;;;;;;6.70;5.93;;;;;;;10.19;100.00;96909.22;5075486;28;20200;-73
2023/10/25 04:01:58;;;;;;;6.43;5.83;;;;;;;10.21;100.00;96904.47;5075120;28;20223;-73
2023/10/25 04:04:24;;;;;;;5.70;5.20;;;;;;;10.14;100.00;96915.25;5074963;28;20205;-73
2023/10/25 04:06:51;;;;;;;6.50;5.47;;;;;;;10.21;100.00;96905.28;5075255;28;20204;-73
2023/10/25 04:09:17;;;;;;;6.93;5.60;;;;;;;10.02;100.00;96911.06;5075187;28;20232;-73
2023/10/25 04:11:43;;;;;;;6.07;5.57;;;;;;;10.15;100.00;96908.91;5074927;28;20606;-73
2023/10/25 04:14:10;;;;;;;6.10;5.60;;;;;;;10.14;100.00;96906.50;5074743;28;20571;-73
2023/10/25 04:16:36;;;;;;;6.50;5.87;;;;;;;10.12;100.00;96901.44;5075130;28;20579;-74
2023/10/25 04:19:02;;;;;;;6.03;5.53;;;;;;;10.07;100.00;96911.97;5074897;28;20221;-74
2023/10/25 04:21:29;;;;;;;5.97;5.47;;;;;;;10.07;100.00;96911.16;5074003;28;20204;-74
2023/10/25 04:23:55;;;;;;;6.30;5.73;;;;;;;10.14;100.00;96895.88;5074831;28;20201;-74
2023/10/25 04:26:22;;;;;;;5.70;5.23;;;;;;;10.01;100.00;96891.66;5074842;28;20227;-73
2023/10/25 04:28:48;;;;;;;6.07;5.33;;;;;;;9.99;100.00;96888.44;5074628;28;20236;-73
2023/10/25 04:31:16;;;;;;;6.17;5.57;;;;;;;10.05;100.00;96892.03;5074649;28;20205;-73
2023/10/25 04:33:42;;;;;;;6.17;5.60;;;;;;;9.93;100.00;96892.09;5074698;28;20239;-74
2023/10/25 04:36:10;;;;;;;5.90;5.40;;;;;;;10.05;100.00;96884.06;5074582;28;20205;-74
2023/10/25 04:38:36;;;;;;;6.60;5.67;;;;;;;10.02;100.00;96876.53;5074477;28;20228;-74
2023/10/25 04:41:03;;;;;;;7.07;5.60;;;;;;;9.94;100.00;96876.94;5074464;28;20206;-74
2023/10/25 04:43:29;;;;;;;7.10;6.43;;;;;;;9.85;100.00;96870.44;5074386;28;20201;-74
2023/10/25 04:45:55;;;;;;;7.23;6.50;;;;;;;9.83;100.00;96873.31;5074036;28;20204;-74
2023/10/25 04:48:22;;;;;;;11.17;8.10;;;;;;;9.74;100.00;96866.03;5074141;28;20220;-74
2023/10/25 04:50:48;;;;;;;8.97;8.10;;;;;;;9.72;100.00;96857.50;5074199;28;20228;-74
2023/10/25 04:53:15;;;;;;;9.17;8.20;;;;;;;9.78;100.00;96851.25;5074357;28;20205;-73
2023/10/25 04:55:45;;;;;;;11.30;8.50;;;;;;;9.74;100.00;96852.75;5074165;28;20207;-73
2023/10/25 04:58:12;;;;;;;11.27;8.80;;;;;;;9.65;100.00;96856.88;5074221;28;20232;-73
2023/10/25 05:00:39;;;;;;;9.17;8.27;;;;;;;9.68;100.00;96851.88;5073705;28;20219;-73
2023/10/25 05:03:10;;;;;;;8.93;8.03;;;;;;;9.62;100.00;96841.41;5073538;28;20586;-73
2023/10/25 05:05:40;;;;;;;8.00;7.20;;;;;;;9.77;100.00;96836.38;5073620;28;20197;-74
2023/10/25 05:08:08;;;;;;;7.83;7.10;;;;;;;9.54;100.00;96836.50;5073824;28;20231;-74
2023/10/25 05:10:35;;;;;;;8.40;6.83;;;;;;;9.52;100.00;96839.44;5073734;28;20227;-74
2023/10/25 05:13:01;;;;;;;7.17;6.47;;;;;;;9.54;100.00;96836.50;5073726;28;20683;-74
2023/10/25 05:15:28;;;;;;;7.30;5.90;;;;;;;9.47;100.00;96833.22;5073247;28;20209;-74
2023/10/25 05:17:55;;;;;;;6.97;6.37;;;;;;;9.46;100.00;96839.59;5073282;28;20730;-74
2023/10/25 05:20:22;;;;;;;7.33;5.80;;;;;;;9.55;100.00;96827.53;5073675;28;20288;-74
2023/10/25 05:22:53;;;;;;;6.30;5.73;;;;;;;9.56;100.00;96824.63;5073606;28;20215;-74
2023/10/25 05:25:20;;;;;;;6.00;4.90;;;;;;;9.51;100.00;96826.41;5073685;28;20204;-74
2023/10/25 05:27:46;;;;;;;5.20;4.80;;;;;;;9.47;100.00;96825.28;5073126;28;20220;-74
2023/10/25 05:30:15;;;;;;;6.80;5.17;;;;;;;9.38;100.00;96821.41;5073648;28;20220;-74
2023/10/25 05:32:45;;;;;;;5.40;4.90;;;;;;;9.40;100.00;96814.81;5073389;28;20208;-74
2023/10/25 05:35:12;;;;;;;4.70;4.37;;;;;;;9.42;100.00;96814.59;5073338;28;20192;-74
2023/10/25 05:37:39;;;;;;;5.33;4.83;;;;;;;9.38;100.00;96810.81;5073380;28;20564;-74
2023/10/25 05:40:06;;;;;;;5.40;5.00;;;;;;;9.33;100.00;96813.38;5073747;28;20203;-74
2023/10/25 05:42:45;;;;;;;5.30;4.90;;;;;;;9.43;100.00;96802.94;5073318;28;20200;-74
2023/10/25 05:45:11;;;;;;;5.70;4.57;;;;;;;9.48;100.00;96800.34;5072418;28;20669;-74
2023/10/25 05:47:38;;;;;;;5.37;4.87;;;;;;;9.44;100.00;96789.44;5073003;28;20224;-74
2023/10/25 05:50:05;;;;;;;5.30;4.80;;;;;;;9.40;100.00;96798.91;5073139;28;20231;-74
2023/10/25 05:52:32;;;;;;;5.27;4.77;;;;;;;9.45;100.00;96793.69;5073242;28;20205;-74
2023/10/25 05:54:58;;;;;;;4.97;4.57;;;;;;;9.33;100.00;96808.09;5072838;28;20247;-74
2023/10/25 05:57:25;;;;;;;5.00;4.60;;;;;;;9.25;100.00;96806.63;5072767;28;20694;-73
2023/10/25 05:59:52;;;;;;;5.30;4.80;;;;;;;9.34;100.00;96799.06;5072972;28;20200;-73
2023/10/25 06:02:22;;;;;;;5.10;4.40;;;;;;;9.36;100.00;96811.03;5073274;28;20193;-73
2023/10/25 06:04:49;;;;;;;4.93;4.47;;;;;;;9.29;100.00;96797.16;5072902;28;20242;-73
2023/10/25 06:07:17;;;;;;;4.87;4.47;;;;;;;9.35;100.00;96800.66;5072731;28;20225;-73
2023/10/25 06:09:43;;;;;;;4.93;4.53;;;;;;;9.40;100.00;96803.41;5072840;28;20307;-74
2023/10/25 06:12:10;;;;;;;4.10;3.80;;;;;;;9.36;100.00;96803.09;5073074;28;20205;-74
2023/10/25 06:14:37;;;;;;;4.57;3.83;;;;;;;9.36;100.00;96803.09;5072669;28;20209;-74
2023/10/25 06:17:03;;;;;;;4.63;4.23;;;;;;;9.34;100.00;96799.06;5073087;28;20204;-74
2023/10/25 06:19:30;;;;;;;4.87;4.27;;;;;;;9.41;100.00;96789.13;5072842;28;20201;-74
2023/10/25 06:21:56;;;;;;;5.93;4.40;;;;;;;9.49;100.00;96792.16;5072941;28;20211;-74
2023/10/25 06:24:23;;;;;;;4.43;4.03;;;;;;;9.48;100.00;96785.25;5072756;28;20548;-74
2023/10/25 06:26:49;;;;;;;4.57;4.17;;;;;;;9.54;100.00;96778.16;5072984;28;20204;-74
2023/10/25 06:29:16;;;;;;;5.13;4.00;;;;;;;9.68;100.00;96771.47;5072762;28;20320;-74
2023/10/25 06:31:44;;;;;;;4.83;4.40;;;;;;;9.56;100.00;96770.78;5072397;28;20663;-74
2023/10/25 06:34:11;;;;;;;6.23;4.00;;;;;;;9.65;100.00;96777.25;5072512;28;20204;-74
2023/10/25 06:36:38;;;;;;;4.40;4.00;;;;;;;9.65;100.00;96761.34;5072718;28;20209;-73
2023/10/25 06:39:07;;;;;;;5.10;4.60;;;;;;;9.61;100.00;96762.88;5072540;28;20220;-73
2023/10/25 06:41:36;;;;;;;5.73;4.73;;;;;;;9.56;100.00;96760.16;5072391;28;20250;-74
2023/10/25 06:44:03;;;;;;;5.57;4.73;;;;;;;9.46;100.00;96765.31;5073090;28;20286;-74
2023/10/25 06:46:29;;;;;;;5.67;5.10;;;;;;;9.56;100.00;96760.16;5076246;28;20211;-74
2023/10/25 06:48:58;;;;;;;5.10;4.70;;;;;;;9.73;100.00;96760.94;5076332;28;20262;-74
2023/10/25 06:51:24;;;;;;;5.00;4.50;;;;;;;9.85;100.00;96761.63;5076356;28;20204;-74
2023/10/25 06:53:51;;;;;;;5.00;4.60;;;;;;;9.92;100.00;96759.59;5076223;28;20662;-74
2023/10/25 06:56:18;;;;;;;5.27;4.70;;;;;;;9.86;100.00;96760.59;5076415;28;20205;-74
2023/10/25 06:58:44;;;;;;;4.90;4.50;;;;;;;10.01;100.00;96755.47;5076275;28;20228;-74
2023/10/25 07:01:12;;;;;;;4.90;4.40;;;;;;;10.13;100.00;96748.19;5075895;28;20568;-74
2023/10/25 07:03:45;;;;;;;5.00;4.50;;;;;;;10.19;100.00;96742.69;5076355;28;20212;-74
2023/10/25 07:06:13;;;;;;;4.97;4.50;;;;;;;10.27;100.00;96734.28;5076325;28;20203;-74
2023/10/25 07:08:40;;;;;;;4.83;4.33;;;;;;;10.33;100.00;96730.63;5075595;28;20714;-74
2023/10/25 07:11:06;;;;;;;4.23;3.93;;;;;;;10.39;100.00;96734.97;5075928;28;20252;-74
2023/10/25 07:13:33;;;;;;;5.33;4.20;;;;;;;10.46;100.00;96729.47;5075836;28;20204;-74
2023/10/25 07:15:59;;;;;;;6.10;4.60;;;;;;;10.63;100.00;96724.84;5075865;28;20205;-74
2023/10/25 07:18:27;;;;;;;5.43;4.00;;;;;;;10.55;100.00;96717.34;5075804;28;20225;-74
2023/10/25 07:20:54;;;;;;;7.57;4.83;;;;;;;10.71;100.00;96722.53;5075520;28;20695;-74
2023/10/25 07:23:20;;;;;;;5.67;4.80;;;;;;;10.80;100.00;96712.25;5075621;28;20208;-74
2023/10/25 07:25:47;;;;;;;5.13;4.73;;;;;;;10.81;100.00;96703.22;5075615;28;20205;-74
2023/10/25 07:28:14;;;;;;;6.10;4.50;;;;;;;10.83;100.00;96701.13;5076829;28;20228;-73
2023/10/25 07:30:40;;;;;;;6.33;4.70;;;;;;;10.96;100.00;96706.03;5075831;28;20311;-74
2023/10/25 07:33:07;;;;;;;4.90;4.50;;;;;;;11.03;100.00;96715.38;5075806;28;20201;-74
2023/10/25 07:35:33;;;;;;;7.00;4.90;;;;;;;11.09;100.00;96714.34;5075909;28;20200;-74
2023/10/25 07:38:00;;;;;;;5.70;4.37;;;;;;;11.22;100.00;96705.16;5075574;28;20645;-74
2023/10/25 07:40:27;;;;;;;4.80;4.40;;;;;;;11.43;100.00;96711.44;5075340;28;20664;-74
2023/10/25 07:42:53;;;;;;;4.87;4.47;;;;;;;11.60;100.00;96710.22;5075263;28;20695;-74
2023/10/25 07:45:20;;;;;;;3.83;3.53;;;;;;;11.61;100.00;96706.50;5075831;28;20572;-74
2023/10/25 07:47:46;;;;;;;4.27;3.77;;;;;;;11.73;100.00;96698.31;5075146;28;20232;-74
2023/10/25 07:50:17;;;;;;;4.00;3.70;;;;;;;11.85;100.00;96691.72;5074875;28;20224;-74
2023/10/25 07:52:44;;;;;;;4.10;3.70;;;;;;;11.81;100.00;96690.66;5075328;28;20240;-74
2023/10/25 07:55:12;;;;;;;4.00;3.60;;;;;;;11.83;100.00;96690.38;5074906;28;20301;-74
2023/10/25 07:57:38;;;;;;;4.90;3.93;;;;;;;11.78;100.00;96690.34;5074027;28;20225;-73
2023/10/25 08:00:06;;;;;;;5.93;3.70;;;;;;;11.68;100.00;96695.63;5075007;28;20209;-73
2023/10/25 08:02:32;;;;;;;4.30;3.93;;;;;;;11.56;100.00;96693.13;5075447;28;20549;-74
2023/10/25 08:04:58;;;;;;;3.40;3.10;;;;;;;11.54;100.00;96692.59;5075276;28;20212;-74
2023/10/25 08:07:26;;;;;;;3.97;3.57;;;;;;;11.68;100.00;96687.63;5074662;28;20600;-74
2023/10/25 08:09:52;;;;;;;4.50;3.30;;;;;;;11.67;100.00;96673.50;5074786;28;20224;-74
2023/10/25 08:12:19;;;;;;;3.60;3.30;;;;;;;11.59;100.00;96674.00;5074683;28;20693;-73
2023/10/25 08:14:46;;;;;;;3.27;3.00;;;;;;;11.71;100.00;96666.63;5074932;28;20206;-73
2023/10/25 08:17:12;;;;;;;3.17;2.97;;;;;;;11.81;100.00;96680.00;5074521;28;20204;-73
2023/10/25 08:19:38;;;;;;;4.43;3.53;;;;;;;11.92;100.00;96672.81;5074970;28;20205;-74
2023/10/25 08:22:05;;;;;;;5.00;3.30;;;;;;;11.85;100.00;96672.28;5074650;28;20671;-74
2023/10/25 08:24:32;;;;;;;3.90;3.60;;;;;;;11.97;100.00;96670.19;5074798;28;20205;-74
2023/10/25 08:26:59;;;;;;;3.63;3.33;;;;;;;12.14;100.00;96668.94;5074697;28;20275;-74
2023/10/25 08:29:25;;;;;;;3.97;3.30;;;;;;;12.15;100.00;96665.19;5074415;28;20586;-74
2023/10/25 08:31:52;;;;;;;3.77;3.47;;;;;;;12.33;100.00;96672.69;5074703;28;20228;-74
2023/10/25 08:34:19;;;;;;;3.07;2.87;;;;;;;12.33;100.00;96671.91;5074496;28;20242;-74
2023/10/25 08:36:45;;;;;;;3.40;3.10;;;;;;;12.28;100.00;96661.22;5074353;28;20211;-74
2023/10/25 08:39:12;;;;;;;4.80;2.97;;;;;;;12.42;100.00;96663.13;5074458;28;20288;-74
2023/10/25 08:41:40;;;;;;;3.53;3.23;;;;;;;12.38;100.00;96662.06;5074614;28;20209;-74
2023/10/25 08:44:08;;;;;;;3.43;2.90;;;;;;;12.39;100.00;96662.88;5074040;28;20213;-74
2023/10/25 08:46:35;;;;;;;3.40;3.20;;;;;;;12.18;100.00;96642.56;5074510;28;20256;-74
2023/10/25 08:49:01;;;;;;;4.00;3.10;;;;;;;12.26;100.00;96644.72;5074245;28;20228;-74
2023/10/25 08:51:27;;;;;;;3.20;2.90;;;;;;;12.21;100.00;96655.38;5074277;28;20234;-74
2023/10/25 08:53:59;;;;;;;2.80;2.60;;;;;;;12.14;100.00;96650.28;5074175;28;20214;-74
2023/10/25 08:56:26;;;;;;;5.13;2.77;;;;;;;12.09;100.00;96655.59;5073677;28;20634;-74
2023/10/25 08:58:52;;;;;;;2.80;2.60;;;;;;;12.39;100.00;96645.00;5074322;28;20276;-74
2023/10/25 09:01:19;;;;;;;4.17;2.83;;;;;;;12.44;100.00;96636.22;5073946;28;20220;-74
2023/10/25 09:03:45;;;;;;;3.27;2.97;;;;;;;12.28;100.00;96631.91;5074107;28;20210;-74
2023/10/25 09:06:22;;;;;;;2.83;2.43;;;;;;;12.42;100.00;96628.47;5074009;28;20260;-74
2023/10/25 09:08:58;;;;;;;3.63;2.60;;;;;;;12.24;100.00;96642.31;5073535;28;20241;-74
2023/10/25 09:11:24;;;;;;;3.13;2.90;;;;;;;12.20;100.00;96638.56;5073602;28;20207;-74
2023/10/25 09:13:57;;;;;;;3.20;2.90;;;;;;;12.24;100.00;96636.97;5074020;28;20214;-74
2023/10/25 09:16:26;;;;;;;3.27;2.97;;;;;;;12.18;100.00;96630.06;5073600;28;20243;-74
2023/10/25 09:18:53;;;;;;;2.90;2.70;;;;;;;12.22;100.00;96627.66;5073154;28;20591;-74
2023/10/25 09:21:27;;;;;;;2.80;2.60;;;;;;;12.20;100.00;96617.25;5073719;28;20218;-74
2023/10/25 09:23:59;;;;;;;3.20;2.90;;;;;;;12.17;100.00;96615.09;5073547;28;20202;-74
2023/10/25 09:26:26;;;;;;;3.03;2.70;;;;;;;12.21;100.00;96621.50;5073529;28;20294;-74
2023/10/25 09:28:54;;;;;;;2.90;2.70;;;;;;;12.22;100.00;96612.47;5073493;28;20589;-74
2023/10/25 09:31:29;;;;;;;2.90;2.70;;;;;;;12.16;100.00;96604.72;5073383;28;20241;-74
2023/10/25 09:33:57;;;;;;;3.43;2.63;;;;;;;12.17;100.00;96606.34;5073639;28;20228;-74
2023/10/25 09:36:24;;;;;;;3.07;2.67;;;;;;;12.19;100.00;96609.50;5073276;28;20672;-74
2023/10/25 09:38:52;;;;;;;2.97;2.77;;;;;;;12.19;100.00;96602.34;5073630;28;20272;-73
2023/10/25 09:41:19;;;;;;;3.60;2.90;;;;;;;12.26;100.00;96602.88;5073569;28;20207;-73
2023/10/25 09:43:53;;;;;;;3.07;2.53;;;;;;;12.35;100.00;96595.16;5073196;28;20207;-73
2023/10/25 09:46:23;;;;;;;3.20;2.60;;;;;;;12.22;100.00;96593.81;5073131;28;20207;-73
2023/10/25 09:49:07;;;;;;;3.00;2.80;;;;;;;12.25;100.00;96585.28;5072990;28;20277;-73
2023/10/25 09:51:58;;;;;;;3.10;2.80;;;;;;;12.44;100.00;96581.03;5074243;28;20261;-74
2023/10/25 09:54:32;;;;;;;3.17;2.87;;;;;;;12.56;100.00;96584.25;5073577;28;20192;-74
2023/10/25 09:56:59;;;;;;;2.70;2.50;;;;;;;12.61;100.00;96573.56;5072860;28;20202;-74
2023/10/25 09:59:31;;;;;;;2.67;2.47;;;;;;;12.57;100.00;96574.41;5072528;28;20211;-74
2023/10/25 10:01:58;;;;;;;3.40;2.83;;;;;;;12.63;100.00;96568.78;5072863;28;20211;-74
2023/10/25 10:04:39;;;;;;;3.00;2.80;;;;;;;12.55;100.00;96564.00;5055224;28;20596;-74
2023/10/25 10:07:18;;;;;;;2.87;2.47;;;;;;;12.54;100.00;96557.06;5073123;28;20196;-74
2023/10/25 10:09:58;;;;;;;3.10;2.80;;;;;;;12.57;100.00;96561.06;5073194;28;20194;-74
2023/10/25 10:12:25;;;;;;;4.00;3.60;;;;;;;12.73;100.00;96551.97;5072881;28;20202;-74
2023/10/25 10:14:52;;;;;;;4.53;3.40;;;;;;;12.62;100.00;96556.50;5073163;28;20206;-74
2023/10/25 10:17:19;;;;;;;4.77;3.37;;;;;;;12.56;100.00;96543.44;5073014;28;20231;-74
2023/10/25 10:19:47;;;;;;;3.40;3.10;;;;;;;12.79;100.00;96537.59;5074277;28;20671;-74
2023/10/25 10:22:16;;;;;;;4.00;3.60;;;;;;;12.74;100.00;96516.25;5077255;28;20210;-74
2023/10/25 10:24:44;;;;;;;4.93;2.77;;;;;;;12.75;100.00;96510.66;5077200;28;20302;-74
2023/10/25 10:27:14;;;;;;;3.73;2.90;;;;;;;12.64;100.00;96519.75;5076756;28;20208;-74
2023/10/25 10:29:43;;;;;;;3.30;3.03;;;;;;;12.75;100.00;96510.66;5076728;28;20205;-74
2023/10/25 10:32:11;;;;;;;3.50;3.20;;;;;;;12.76;100.00;96504.25;5076717;28;20235;-74
2023/10/25 10:34:49;;;;;;;4.57;3.30;;;;;;;13.02;100.00;96500.47;5076693;28;20235;-74
2023/10/25 10:37:21;;;;;;;2.90;2.70;;;;;;;13.03;100.00;96486.06;5076731;28;20235;-74
2023/10/25 10:39:57;;;;;;;3.77;2.70;;;;;;;13.14;100.00;96481.50;5076381;28;20632;-73
2023/10/25 10:42:29;;;;;;;2.97;2.60;;;;;;;13.14;100.00;96476.97;5076509;28;20200;-74
2023/10/25 10:44:56;;;;;;;2.60;2.40;;;;;;;13.37;100.00;96480.84;5076232;28;20204;-74
2023/10/25 10:47:33;;;;;;;3.13;2.40;;;;;;;13.45;100.00;96473.09;5076104;28;20683;-74
2023/10/25 10:50:09;;;;;;;2.72;2.53;;;;;;;13.63;100.00;96467.13;5076185;28;20412;-74
2023/10/25 10:52:36;;;;;;;2.40;2.20;;;;;;;13.73;100.00;96451.03;5076453;28;20192;-74
2023/10/25 10:55:02;;;;;;;2.60;2.33;;;;;;;13.73;100.00;96448.34;5076733;28;20205;-74
2023/10/25 10:57:29;;;;;;;2.17;2.07;;;;;;;13.74;100.00;96439.25;5076037;28;20726;-74
2023/10/25 10:59:56;;;;;;;2.10;1.90;;;;;;;13.77;100.00;96443.25;5076070;28;20204;-74
2023/10/25 11:02:22;;;;;;;2.20;1.93;;;;;;;13.80;100.00;96434.69;5076282;28;20195;-74
2023/10/25 11:04:48;;;;;;;2.40;2.20;;;;;;;13.79;100.00;96430.44;5076284;28;20231;-74
2023/10/25 11:07:18;;;;;;;2.97;2.10;;;;;;;14.09;100.00;96425.66;5075955;28;20208;-74
2023/10/25 11:09:45;;;;;;;1.83;1.70;;;;;;;13.91;100.00;96420.97;5075931;28;20231;-74
2023/10/25 11:12:14;;;;;;;3.17;2.00;;;;;;;13.97;100.00;96411.84;5076026;28;20231;-74
2023/10/25 11:14:45;;;;;;;1.90;1.80;;;;;;;13.79;100.00;96409.84;5075589;28;20216;-74
2023/10/25 11:17:13;;;;;;;2.63;1.80;;;;;;;13.89;100.00;96404.41;5075762;28;20208;-74
2023/10/25 11:19:40;;;;;;;2.03;1.77;;;;;;;13.95;100.00;96397.97;5075798;28;20211;-74
2023/10/25 11:22:07;;;;;;;2.50;1.73;;;;;;;14.09;100.00;96390.09;5076004;28;20203;-74
2023/10/25 11:24:36;;;;;;;2.17;1.93;;;;;;;14.17;100.00;96379.63;5076055;28;20211;-74
2023/10/25 11:27:04;;;;;;;1.73;1.63;;;;;;;14.37;100.00;96374.09;5075908;28;20211;-74
2023/10/25 11:29:37;;;;;;;2.23;1.40;;;;;;;14.42;100.00;96366.03;5075642;28;20212;-75